sensor_id;sensor_type;location;lat;lon;timestamp;temperature;humidity
5759;DHT22;2904;48.788;9.196;2022-07-10T00:00:27;18.80;99.90
5759;DHT22;2904;48.788;9.196;2022-07-10T00:02:53;18.80;99.90
5759;DHT22;2904;48.788;9.196;2022-07-10T00:05:18;18.80;99.90
5759;DHT22;2904;48.788;9.196;2022-07-10T00:07:45;18.70;99.90
5759;DHT22;2904;48.788;9.196;2022-07-10T00:10:11;18.70;99.90
5759;DHT22;2904;48.788;9.196;2022-07-10T00:12:37;18.70;99.90
5759;DHT22;2904;48.788;9.196;2022-07-10T00:15:04;18.80;99.90
5759;DHT22;2904;48.788;9.196;2022-07-10T00:17:33;18.80;99.90
5759;DHT22;2904;48.788;9.196;2022-07-10T00:19:59;18.80;99.90
5759;DHT22;2904;48.788;9.196;2022-07-10T00:22:25;18.90;99.90
5759;DHT22;2904;48.788;9.196;2022-07-10T00:24:51;18.90;99.90
5759;DHT22;2904;48.788;9.196;2022-07-10T00:27:17;18.90;99.90
5759;DHT22;2904;48.788;9.196;2022-07-10T00:29:43;19.00;99.90
5759;DHT22;2904;48.788;9.196;2022-07-10T00:32:09;19.00;99.90
5759;DHT22;2904;48.788;9.196;2022-07-10T00:34:35;19.00;99.90
5759;DHT22;2904;48.788;9.196;2022-07-10T00:37:01;19.00;99.90
5759;DHT22;2904;48.788;9.196;2022-07-10T00:39:27;18.80;99.90
5759;DHT22;2904;48.788;9.196;2022-07-10T00:41:52;18.80;99.90
5759;DHT22;2904;48.788;9.196;2022-07-10T00:44:18;18.80;99.90
5759;DHT22;2904;48.788;9.196;2022-07-10T00:46:44;18.80;99.90
5759;DHT22;2904;48.788;9.196;2022-07-10T00:49:09;18.80;99.90
5759;DHT22;2904;48.788;9.196;2022-07-10T00:51:37;18.80;99.90
5759;DHT22;2904;48.788;9.196;2022-07-10T00:54:03;18.90;99.90
5759;DHT22;2904;48.788;9.196;2022-07-10T00:56:30;18.90;99.90
5759;DHT22;2904;48.788;9.196;2022-07-10T00:58:55;18.90;99.90
5759;DHT22;2904;48.788;9.196;2022-07-10T01:01:21;18.80;99.90
5759;DHT22;2904;48.788;9.196;2022-07-10T01:03:50;18.70;99.90
5759;DHT22;2904;48.788;9.196;2022-07-10T01:06:16;18.70;99.90
5759;DHT22;2904;48.788;9.196;2022-07-10T01:08:43;18.70;99.90
5759;DHT22;2904;48.788;9.196;2022-07-10T01:11:10;18.70;99.90
5759;DHT22;2904;48.788;9.196;2022-07-10T01:13:36;18.60;99.90
5759;DHT22;2904;48.788;9.196;2022-07-10T01:16:03;18.70;99.90
5759;DHT22;2904;48.788;9.196;2022-07-10T01:18:29;18.50;99.90
5759;DHT22;2904;48.788;9.196;2022-07-10T01:20:56;18.40;99.90
5759;DHT22;2904;48.788;9.196;2022-07-10T01:23:22;18.30;99.90
5759;DHT22;2904;48.788;9.196;2022-07-10T01:25:49;18.20;99.90
5759;DHT22;2904;48.788;9.196;2022-07-10T01:28:20;18.10;99.90
5759;DHT22;2904;48.788;9.196;2022-07-10T01:30:46;18.00;99.90
5759;DHT22;2904;48.788;9.196;2022-07-10T01:33:12;18.10;99.90
5759;DHT22;2904;48.788;9.196;2022-07-10T01:35:39;18.10;99.90
5759;DHT22;2904;48.788;9.196;2022-07-10T01:38:05;18.10;99.90
5759;DHT22;2904;48.788;9.196;2022-07-10T01:40:31;18.10;99.90
5759;DHT22;2904;48.788;9.196;2022-07-10T01:42:56;18.20;99.90
5759;DHT22;2904;48.788;9.196;2022-07-10T01:45:23;18.20;99.90
5759;DHT22;2904;48.788;9.196;2022-07-10T01:47:49;18.10;99.90
5759;DHT22;2904;48.788;9.196;2022-07-10T01:50:14;18.10;99.90
5759;DHT22;2904;48.788;9.196;2022-07-10T01:52:40;18.10;99.90
5759;DHT22;2904;48.788;9.196;2022-07-10T01:55:06;18.10;99.90
5759;DHT22;2904;48.788;9.196;2022-07-10T01:57:33;18.10;99.90
5759;DHT22;2904;48.788;9.196;2022-07-10T01:59:58;18.00;99.90
5759;DHT22;2904;48.788;9.196;2022-07-10T02:02:25;17.90;99.90
5759;DHT22;2904;48.788;9.196;2022-07-10T02:04:50;17.90;99.90
5759;DHT22;2904;48.788;9.196;2022-07-10T02:07:18;17.90;99.90
5759;DHT22;2904;48.788;9.196;2022-07-10T02:09:47;17.80;99.90
5759;DHT22;2904;48.788;9.196;2022-07-10T02:12:14;17.70;99.90
5759;DHT22;2904;48.788;9.196;2022-07-10T02:14:41;17.70;99.90
5759;DHT22;2904;48.788;9.196;2022-07-10T02:17:07;17.70;99.90
5759;DHT22;2904;48.788;9.196;2022-07-10T02:19:34;17.70;99.90
5759;DHT22;2904;48.788;9.196;2022-07-10T02:22:01;17.60;99.90
5759;DHT22;2904;48.788;9.196;2022-07-10T02:24:27;17.50;99.90
5759;DHT22;2904;48.788;9.196;2022-07-10T02:26:53;17.50;99.90
5759;DHT22;2904;48.788;9.196;2022-07-10T02:29:20;17.50;99.90
5759;DHT22;2904;48.788;9.196;2022-07-10T02:31:46;17.50;99.90
5759;DHT22;2904;48.788;9.196;2022-07-10T02:34:12;17.50;99.90
5759;DHT22;2904;48.788;9.196;2022-07-10T02:36:39;17.60;99.90
5759;DHT22;2904;48.788;9.196;2022-07-10T02:39:05;17.40;99.90
5759;DHT22;2904;48.788;9.196;2022-07-10T02:41:31;17.20;99.90
5759;DHT22;2904;48.788;9.196;2022-07-10T02:43:57;17.20;99.90
5759;DHT22;2904;48.788;9.196;2022-07-10T02:46:23;17.20;99.90
5759;DHT22;2904;48.788;9.196;2022-07-10T02:48:48;17.10;99.90
5759;DHT22;2904;48.788;9.196;2022-07-10T02:51:14;17.00;99.90
5759;DHT22;2904;48.788;9.196;2022-07-10T02:53:40;17.00;99.90
5759;DHT22;2904;48.788;9.196;2022-07-10T02:56:05;17.00;99.90
5759;DHT22;2904;48.788;9.196;2022-07-10T02:58:32;17.10;99.90
5759;DHT22;2904;48.788;9.196;2022-07-10T03:00:58;17.10;99.90
5759;DHT22;2904;48.788;9.196;2022-07-10T03:03:24;17.10;99.90
5759;DHT22;2904;48.788;9.196;2022-07-10T03:05:49;17.10;99.90
5759;DHT22;2904;48.788;9.196;2022-07-10T03:08:16;17.20;99.90
5759;DHT22;2904;48.788;9.196;2022-07-10T03:10:42;17.40;99.90
5759;DHT22;2904;48.788;9.196;2022-07-10T03:13:07;17.00;99.90
5759;DHT22;2904;48.788;9.196;2022-07-10T03:15:33;16.90;99.90
5759;DHT22;2904;48.788;9.196;2022-07-10T03:17:59;16.90;99.90
5759;DHT22;2904;48.788;9.196;2022-07-10T03:20:25;16.80;99.90
5759;DHT22;2904;48.788;9.196;2022-07-10T03:22:50;16.80;99.90
5759;DHT22;2904;48.788;9.196;2022-07-10T03:25:16;16.90;99.90
5759;DHT22;2904;48.788;9.196;2022-07-10T03:27:42;16.90;99.90
5759;DHT22;2904;48.788;9.196;2022-07-10T03:30:09;16.90;99.90
5759;DHT22;2904;48.788;9.196;2022-07-10T03:32:34;17.00;99.90
5759;DHT22;2904;48.788;9.196;2022-07-10T03:35:01;17.00;99.90
5759;DHT22;2904;48.788;9.196;2022-07-10T03:37:27;17.00;99.90
5759;DHT22;2904;48.788;9.196;2022-07-10T03:39:53;17.00;99.90
5759;DHT22;2904;48.788;9.196;2022-07-10T03:42:19;16.80;99.90
5759;DHT22;2904;48.788;9.196;2022-07-10T03:44:45;16.80;99.90
5759;DHT22;2904;48.788;9.196;2022-07-10T03:47:11;16.70;99.90
5759;DHT22;2904;48.788;9.196;2022-07-10T03:49:37;16.70;99.90
5759;DHT22;2904;48.788;9.196;2022-07-10T03:52:05;16.70;99.90
5759;DHT22;2904;48.788;9.196;2022-07-10T03:54:31;16.70;99.90
5759;DHT22;2904;48.788;9.196;2022-07-10T03:56:57;16.80;99.90
5759;DHT22;2904;48.788;9.196;2022-07-10T03:59:42;17.00;99.90
5759;DHT22;2904;48.788;9.196;2022-07-10T04:02:08;16.60;99.90
5759;DHT22;2904;48.788;9.196;2022-07-10T04:06:59;16.60;99.90
5759;DHT22;2904;48.788;9.196;2022-07-10T04:09:25;16.60;99.90
5759;DHT22;2904;48.788;9.196;2022-07-10T04:11:51;16.60;99.90
5759;DHT22;2904;48.788;9.196;2022-07-10T04:14:16;16.60;99.90
5759;DHT22;2904;48.788;9.196;2022-07-10T04:16:42;16.70;99.90
5759;DHT22;2904;48.788;9.196;2022-07-10T04:19:08;16.70;99.90
5759;DHT22;2904;48.788;9.196;2022-07-10T04:21:33;16.70;99.90
5759;DHT22;2904;48.788;9.196;2022-07-10T04:23:59;16.70;99.90
5759;DHT22;2904;48.788;9.196;2022-07-10T04:26:25;16.70;99.90
5759;DHT22;2904;48.788;9.196;2022-07-10T04:28:50;16.80;99.90
5759;DHT22;2904;48.788;9.196;2022-07-10T04:31:16;16.80;99.90
5759;DHT22;2904;48.788;9.196;2022-07-10T04:33:41;16.80;99.90
5759;DHT22;2904;48.788;9.196;2022-07-10T04:36:07;16.70;99.90
5759;DHT22;2904;48.788;9.196;2022-07-10T04:38:33;16.80;99.90
5759;DHT22;2904;48.788;9.196;2022-07-10T04:40:59;16.80;99.90
5759;DHT22;2904;48.788;9.196;2022-07-10T04:43:24;16.80;99.90
5759;DHT22;2904;48.788;9.196;2022-07-10T04:45:50;16.90;99.90
5759;DHT22;2904;48.788;9.196;2022-07-10T04:48:16;16.80;99.90
5759;DHT22;2904;48.788;9.196;2022-07-10T04:50:42;16.70;99.90
5759;DHT22;2904;48.788;9.196;2022-07-10T04:53:08;16.70;99.90
5759;DHT22;2904;48.788;9.196;2022-07-10T04:55:33;16.80;99.90
5759;DHT22;2904;48.788;9.196;2022-07-10T04:57:59;16.80;99.90
5759;DHT22;2904;48.788;9.196;2022-07-10T05:00:25;16.80;99.90
5759;DHT22;2904;48.788;9.196;2022-07-10T05:02:50;16.70;99.90
5759;DHT22;2904;48.788;9.196;2022-07-10T05:05:16;16.50;99.90
5759;DHT22;2904;48.788;9.196;2022-07-10T05:07:42;16.70;99.90
5759;DHT22;2904;48.788;9.196;2022-07-10T05:10:08;16.70;99.90
5759;DHT22;2904;48.788;9.196;2022-07-10T05:12:34;16.70;99.90
5759;DHT22;2904;48.788;9.196;2022-07-10T05:15:00;16.80;99.90
5759;DHT22;2904;48.788;9.196;2022-07-10T05:17:26;16.80;99.90
5759;DHT22;2904;48.788;9.196;2022-07-10T05:19:54;16.80;99.90
5759;DHT22;2904;48.788;9.196;2022-07-10T05:22:22;16.90;99.90
5759;DHT22;2904;48.788;9.196;2022-07-10T05:24:48;16.80;99.90
5759;DHT22;2904;48.788;9.196;2022-07-10T05:27:14;16.70;99.90
5759;DHT22;2904;48.788;9.196;2022-07-10T05:29:43;16.80;99.90
5759;DHT22;2904;48.788;9.196;2022-07-10T05:32:09;16.70;99.90
5759;DHT22;2904;48.788;9.196;2022-07-10T05:34:34;16.60;99.90
5759;DHT22;2904;48.788;9.196;2022-07-10T05:37:00;16.70;99.90
5759;DHT22;2904;48.788;9.196;2022-07-10T05:39:26;16.70;99.90
5759;DHT22;2904;48.788;9.196;2022-07-10T05:41:52;16.80;99.90
5759;DHT22;2904;48.788;9.196;2022-07-10T05:44:19;16.90;99.90
5759;DHT22;2904;48.788;9.196;2022-07-10T05:46:46;16.90;99.90
5759;DHT22;2904;48.788;9.196;2022-07-10T05:49:12;17.00;99.90
5759;DHT22;2904;48.788;9.196;2022-07-10T05:51:38;17.00;99.90
5759;DHT22;2904;48.788;9.196;2022-07-10T05:54:03;17.10;99.90
5759;DHT22;2904;48.788;9.196;2022-07-10T05:56:29;17.10;99.90
5759;DHT22;2904;48.788;9.196;2022-07-10T05:58:55;17.10;99.90
5759;DHT22;2904;48.788;9.196;2022-07-10T06:01:21;17.20;99.90
5759;DHT22;2904;48.788;9.196;2022-07-10T06:03:47;17.30;99.90
5759;DHT22;2904;48.788;9.196;2022-07-10T06:06:13;17.20;99.90
5759;DHT22;2904;48.788;9.196;2022-07-10T06:08:41;17.20;99.90
5759;DHT22;2904;48.788;9.196;2022-07-10T06:11:07;17.20;99.90
5759;DHT22;2904;48.788;9.196;2022-07-10T06:13:33;17.20;99.90
5759;DHT22;2904;48.788;9.196;2022-07-10T06:15:59;17.30;99.90
5759;DHT22;2904;48.788;9.196;2022-07-10T06:18:25;17.40;99.90
5759;DHT22;2904;48.788;9.196;2022-07-10T06:20:50;17.40;99.90
5759;DHT22;2904;48.788;9.196;2022-07-10T06:23:16;17.30;99.90
5759;DHT22;2904;48.788;9.196;2022-07-10T06:25:41;17.20;99.90
5759;DHT22;2904;48.788;9.196;2022-07-10T06:28:07;17.10;99.90
5759;DHT22;2904;48.788;9.196;2022-07-10T06:30:32;17.00;99.90
5759;DHT22;2904;48.788;9.196;2022-07-10T06:32:58;17.00;99.90
5759;DHT22;2904;48.788;9.196;2022-07-10T06:35:24;17.00;99.90
5759;DHT22;2904;48.788;9.196;2022-07-10T06:37:50;17.20;99.90
5759;DHT22;2904;48.788;9.196;2022-07-10T06:40:17;17.40;99.90
5759;DHT22;2904;48.788;9.196;2022-07-10T06:42:45;17.50;99.90
5759;DHT22;2904;48.788;9.196;2022-07-10T06:45:11;17.50;99.90
5759;DHT22;2904;48.788;9.196;2022-07-10T06:47:37;17.50;99.90
5759;DHT22;2904;48.788;9.196;2022-07-10T06:50:21;17.40;99.90
5759;DHT22;2904;48.788;9.196;2022-07-10T06:52:48;17.40;99.90
5759;DHT22;2904;48.788;9.196;2022-07-10T06:55:14;17.90;99.90
5759;DHT22;2904;48.788;9.196;2022-07-10T06:57:40;17.50;99.90
5759;DHT22;2904;48.788;9.196;2022-07-10T07:00:06;17.30;99.90
5759;DHT22;2904;48.788;9.196;2022-07-10T07:02:32;17.40;99.90
5759;DHT22;2904;48.788;9.196;2022-07-10T07:04:58;17.40;99.90
5759;DHT22;2904;48.788;9.196;2022-07-10T07:07:23;17.50;99.90
5759;DHT22;2904;48.788;9.196;2022-07-10T07:09:49;17.60;99.90
5759;DHT22;2904;48.788;9.196;2022-07-10T07:12:17;17.80;99.90
5759;DHT22;2904;48.788;9.196;2022-07-10T07:14:43;18.20;99.90
5759;DHT22;2904;48.788;9.196;2022-07-10T07:19:40;18.10;99.90
5759;DHT22;2904;48.788;9.196;2022-07-10T07:22:25;17.80;99.90
5759;DHT22;2904;48.788;9.196;2022-07-10T07:25:10;17.70;99.90
5759;DHT22;2904;48.788;9.196;2022-07-10T07:27:37;17.80;99.90
5759;DHT22;2904;48.788;9.196;2022-07-10T07:30:08;17.90;99.90
5759;DHT22;2904;48.788;9.196;2022-07-10T07:32:36;18.00;99.90
5759;DHT22;2904;48.788;9.196;2022-07-10T07:35:03;18.00;99.90
5759;DHT22;2904;48.788;9.196;2022-07-10T07:37:43;18.00;99.90
5759;DHT22;2904;48.788;9.196;2022-07-10T07:40:11;17.90;99.90
5759;DHT22;2904;48.788;9.196;2022-07-10T07:42:37;18.10;99.90
5759;DHT22;2904;48.788;9.196;2022-07-10T07:45:05;17.90;99.90
5759;DHT22;2904;48.788;9.196;2022-07-10T07:47:39;17.90;99.90
5759;DHT22;2904;48.788;9.196;2022-07-10T07:50:08;17.30;99.90
5759;DHT22;2904;48.788;9.196;2022-07-10T07:52:34;18.00;99.90
5759;DHT22;2904;48.788;9.196;2022-07-10T07:55:01;18.00;99.90
5759;DHT22;2904;48.788;9.196;2022-07-10T08:02:19;18.40;99.90
5759;DHT22;2904;48.788;9.196;2022-07-10T08:04:44;18.60;99.90
5759;DHT22;2904;48.788;9.196;2022-07-10T08:09:36;18.40;99.90
5759;DHT22;2904;48.788;9.196;2022-07-10T08:12:02;18.60;99.90
5759;DHT22;2904;48.788;9.196;2022-07-10T08:14:28;18.60;99.90
5759;DHT22;2904;48.788;9.196;2022-07-10T08:16:54;18.80;99.90
5759;DHT22;2904;48.788;9.196;2022-07-10T08:19:20;18.60;99.90
5759;DHT22;2904;48.788;9.196;2022-07-10T08:21:45;18.50;99.90
5759;DHT22;2904;48.788;9.196;2022-07-10T08:24:11;18.30;99.90
5759;DHT22;2904;48.788;9.196;2022-07-10T08:26:37;18.20;99.90
5759;DHT22;2904;48.788;9.196;2022-07-10T08:29:02;18.00;99.90
5759;DHT22;2904;48.788;9.196;2022-07-10T08:31:28;18.20;99.90
5759;DHT22;2904;48.788;9.196;2022-07-10T08:33:54;18.50;99.90
5759;DHT22;2904;48.788;9.196;2022-07-10T08:36:19;18.70;99.90
5759;DHT22;2904;48.788;9.196;2022-07-10T08:38:45;18.90;99.90
5759;DHT22;2904;48.788;9.196;2022-07-10T08:41:12;19.10;99.90
5759;DHT22;2904;48.788;9.196;2022-07-10T08:43:39;19.20;99.90
5759;DHT22;2904;48.788;9.196;2022-07-10T08:46:05;19.10;99.90
5759;DHT22;2904;48.788;9.196;2022-07-10T08:48:32;18.80;99.90
5759;DHT22;2904;48.788;9.196;2022-07-10T08:51:04;18.50;99.90
5759;DHT22;2904;48.788;9.196;2022-07-10T08:53:32;18.40;99.90
5759;DHT22;2904;48.788;9.196;2022-07-10T08:58:26;18.80;99.90
5759;DHT22;2904;48.788;9.196;2022-07-10T09:00:52;18.80;99.90
5759;DHT22;2904;48.788;9.196;2022-07-10T09:03:19;18.90;99.90
5759;DHT22;2904;48.788;9.196;2022-07-10T09:05:44;19.00;99.90
5759;DHT22;2904;48.788;9.196;2022-07-10T09:08:27;18.90;99.90
5759;DHT22;2904;48.788;9.196;2022-07-10T09:11:17;18.90;99.90
5759;DHT22;2904;48.788;9.196;2022-07-10T09:13:53;19.00;99.90
5759;DHT22;2904;48.788;9.196;2022-07-10T09:16:29;18.90;99.90
5759;DHT22;2904;48.788;9.196;2022-07-10T09:18:56;18.80;99.90
5759;DHT22;2904;48.788;9.196;2022-07-10T09:21:22;18.80;99.90
5759;DHT22;2904;48.788;9.196;2022-07-10T09:23:49;18.10;99.90
5759;DHT22;2904;48.788;9.196;2022-07-10T09:26:14;18.70;99.90
5759;DHT22;2904;48.788;9.196;2022-07-10T09:28:40;18.80;99.90
5759;DHT22;2904;48.788;9.196;2022-07-10T09:31:06;19.20;99.90
5759;DHT22;2904;48.788;9.196;2022-07-10T09:33:32;19.30;99.90
5759;DHT22;2904;48.788;9.196;2022-07-10T09:36:10;19.10;99.90
5759;DHT22;2904;48.788;9.196;2022-07-10T09:38:50;19.00;99.90
5759;DHT22;2904;48.788;9.196;2022-07-10T09:41:34;18.90;99.90
5759;DHT22;2904;48.788;9.196;2022-07-10T09:44:05;19.00;99.90
5759;DHT22;2904;48.788;9.196;2022-07-10T09:46:34;19.20;99.90
5759;DHT22;2904;48.788;9.196;2022-07-10T09:49:05;19.10;99.90
5759;DHT22;2904;48.788;9.196;2022-07-10T09:51:33;19.50;99.90
5759;DHT22;2904;48.788;9.196;2022-07-10T09:56:33;20.10;99.90
5759;DHT22;2904;48.788;9.196;2022-07-10T09:59:00;20.10;99.90
5759;DHT22;2904;48.788;9.196;2022-07-10T10:01:27;20.20;99.90
5759;DHT22;2904;48.788;9.196;2022-07-10T10:06:20;19.90;99.90
5759;DHT22;2904;48.788;9.196;2022-07-10T10:09:04;19.90;99.90
5759;DHT22;2904;48.788;9.196;2022-07-10T10:11:34;20.00;99.90
5759;DHT22;2904;48.788;9.196;2022-07-10T10:14:01;20.00;99.90
5759;DHT22;2904;48.788;9.196;2022-07-10T10:16:29;19.40;99.90
5759;DHT22;2904;48.788;9.196;2022-07-10T10:18:55;20.00;99.90
5759;DHT22;2904;48.788;9.196;2022-07-10T10:21:39;19.50;99.90
5759;DHT22;2904;48.788;9.196;2022-07-10T10:24:06;19.50;99.90
5759;DHT22;2904;48.788;9.196;2022-07-10T10:26:32;19.80;99.90
5759;DHT22;2904;48.788;9.196;2022-07-10T10:29:01;20.00;99.90
5759;DHT22;2904;48.788;9.196;2022-07-10T10:31:29;20.10;99.90
5759;DHT22;2904;48.788;9.196;2022-07-10T10:33:57;19.70;99.90
5759;DHT22;2904;48.788;9.196;2022-07-10T10:38:15;19.10;99.90
5759;DHT22;2904;48.788;9.196;2022-07-10T10:40:41;18.60;99.90
5759;DHT22;2904;48.788;9.196;2022-07-10T10:43:21;19.20;99.90
5759;DHT22;2904;48.788;9.196;2022-07-10T10:45:49;19.30;99.90
5759;DHT22;2904;48.788;9.196;2022-07-10T10:48:16;19.50;99.90
5759;DHT22;2904;48.788;9.196;2022-07-10T10:50:53;19.30;99.90
5759;DHT22;2904;48.788;9.196;2022-07-10T10:53:28;19.40;99.90
5759;DHT22;2904;48.788;9.196;2022-07-10T10:57:14;19.70;99.90
5759;DHT22;2904;48.788;9.196;2022-07-10T10:59:51;20.20;99.90
5759;DHT22;2904;48.788;9.196;2022-07-10T11:02:31;20.70;99.90
5759;DHT22;2904;48.788;9.196;2022-07-10T11:08:40;20.60;99.90
5759;DHT22;2904;48.788;9.196;2022-07-10T11:15:14;20.50;99.90
5759;DHT22;2904;48.788;9.196;2022-07-10T11:17:41;19.70;99.90
5759;DHT22;2904;48.788;9.196;2022-07-10T11:20:07;20.60;99.90
5759;DHT22;2904;48.788;9.196;2022-07-10T11:26:13;20.70;99.90
5759;DHT22;2904;48.788;9.196;2022-07-10T11:28:59;19.40;99.90
5759;DHT22;2904;48.788;9.196;2022-07-10T11:31:26;19.30;99.90
5759;DHT22;2904;48.788;9.196;2022-07-10T11:33:54;19.60;99.90
5759;DHT22;2904;48.788;9.196;2022-07-10T11:36:25;20.10;99.90
5759;DHT22;2904;48.788;9.196;2022-07-10T11:39:06;20.20;99.90
5759;DHT22;2904;48.788;9.196;2022-07-10T11:41:33;20.10;99.90
5759;DHT22;2904;48.788;9.196;2022-07-10T11:44:02;20.30;99.90
5759;DHT22;2904;48.788;9.196;2022-07-10T11:46:34;20.60;99.90
5759;DHT22;2904;48.788;9.196;2022-07-10T11:49:05;20.20;99.90
5759;DHT22;2904;48.788;9.196;2022-07-10T11:51:34;19.90;99.90
5759;DHT22;2904;48.788;9.196;2022-07-10T11:54:03;19.90;99.90
5759;DHT22;2904;48.788;9.196;2022-07-10T11:56:31;20.00;99.90
5759;DHT22;2904;48.788;9.196;2022-07-10T11:59:07;20.60;99.90
5759;DHT22;2904;48.788;9.196;2022-07-10T12:01:35;19.90;99.90
5759;DHT22;2904;48.788;9.196;2022-07-10T12:04:07;20.60;99.90
5759;DHT22;2904;48.788;9.196;2022-07-10T12:06:41;20.90;99.90
5759;DHT22;2904;48.788;9.196;2022-07-10T12:09:18;20.90;99.90
5759;DHT22;2904;48.788;9.196;2022-07-10T12:12:01;20.70;99.90
5759;DHT22;2904;48.788;9.196;2022-07-10T12:14:27;20.60;99.90
5759;DHT22;2904;48.788;9.196;2022-07-10T12:16:54;20.90;99.90
5759;DHT22;2904;48.788;9.196;2022-07-10T12:19:25;21.10;99.90
5759;DHT22;2904;48.788;9.196;2022-07-10T12:21:51;21.20;99.90
5759;DHT22;2904;48.788;9.196;2022-07-10T12:24:18;21.00;99.90
5759;DHT22;2904;48.788;9.196;2022-07-10T12:26:48;20.90;99.90
5759;DHT22;2904;48.788;9.196;2022-07-10T12:29:21;21.00;99.90
5759;DHT22;2904;48.788;9.196;2022-07-10T12:31:49;20.80;99.90
5759;DHT22;2904;48.788;9.196;2022-07-10T12:34:16;20.60;99.90
5759;DHT22;2904;48.788;9.196;2022-07-10T12:36:49;20.80;99.90
5759;DHT22;2904;48.788;9.196;2022-07-10T12:39:21;21.00;99.90
5759;DHT22;2904;48.788;9.196;2022-07-10T12:41:54;21.10;99.90
5759;DHT22;2904;48.788;9.196;2022-07-10T12:44:35;21.20;99.90
5759;DHT22;2904;48.788;9.196;2022-07-10T12:47:11;21.20;99.90
5759;DHT22;2904;48.788;9.196;2022-07-10T12:50:05;21.10;99.90
5759;DHT22;2904;48.788;9.196;2022-07-10T12:52:36;21.20;99.90
5759;DHT22;2904;48.788;9.196;2022-07-10T12:55:17;21.30;99.90
5759;DHT22;2904;48.788;9.196;2022-07-10T12:57:55;20.90;99.90
5759;DHT22;2904;48.788;9.196;2022-07-10T13:00:29;21.20;99.90
5759;DHT22;2904;48.788;9.196;2022-07-10T13:02:58;21.40;99.90
5759;DHT22;2904;48.788;9.196;2022-07-10T13:10:55;21.40;99.90
5759;DHT22;2904;48.788;9.196;2022-07-10T13:15:49;21.50;99.90
5759;DHT22;2904;48.788;9.196;2022-07-10T13:18:23;21.50;99.90
5759;DHT22;2904;48.788;9.196;2022-07-10T13:20:54;21.50;99.90
5759;DHT22;2904;48.788;9.196;2022-07-10T13:23:21;21.80;99.90
5759;DHT22;2904;48.788;9.196;2022-07-10T13:25:53;22.60;99.90
5759;DHT22;2904;48.788;9.196;2022-07-10T13:28:19;21.60;99.90
5759;DHT22;2904;48.788;9.196;2022-07-10T13:30:45;21.40;99.90
5759;DHT22;2904;48.788;9.196;2022-07-10T13:33:12;21.80;99.90
5759;DHT22;2904;48.788;9.196;2022-07-10T13:35:38;22.00;99.90
5759;DHT22;2904;48.788;9.196;2022-07-10T13:38:05;21.40;99.90
5759;DHT22;2904;48.788;9.196;2022-07-10T13:40:33;21.50;99.90
5759;DHT22;2904;48.788;9.196;2022-07-10T13:42:59;21.70;99.90
5759;DHT22;2904;48.788;9.196;2022-07-10T13:45:25;22.10;99.90
5759;DHT22;2904;48.788;9.196;2022-07-10T13:47:55;22.50;99.90
5759;DHT22;2904;48.788;9.196;2022-07-10T13:50:22;22.80;99.90
5759;DHT22;2904;48.788;9.196;2022-07-10T13:52:49;22.50;99.90
5759;DHT22;2904;48.788;9.196;2022-07-10T13:55:14;22.30;99.90
5759;DHT22;2904;48.788;9.196;2022-07-10T13:57:40;22.70;99.90
5759;DHT22;2904;48.788;9.196;2022-07-10T14:00:06;22.90;99.90
5759;DHT22;2904;48.788;9.196;2022-07-10T14:02:32;23.40;99.90
5759;DHT22;2904;48.788;9.196;2022-07-10T14:04:58;24.40;99.60
5759;DHT22;2904;48.788;9.196;2022-07-10T14:07:24;25.70;96.80
5759;DHT22;2904;48.788;9.196;2022-07-10T14:09:50;25.80;96.00
5759;DHT22;2904;48.788;9.196;2022-07-10T14:12:16;25.70;96.50
5759;DHT22;2904;48.788;9.196;2022-07-10T14:14:42;26.80;94.90
5759;DHT22;2904;48.788;9.196;2022-07-10T14:17:07;27.50;92.30
5759;DHT22;2904;48.788;9.196;2022-07-10T14:19:33;27.80;90.10
5759;DHT22;2904;48.788;9.196;2022-07-10T14:21:59;28.10;88.70
5759;DHT22;2904;48.788;9.196;2022-07-10T14:24:25;28.60;85.80
5759;DHT22;2904;48.788;9.196;2022-07-10T14:26:50;27.90;84.60
5759;DHT22;2904;48.788;9.196;2022-07-10T14:29:18;26.80;86.80
5759;DHT22;2904;48.788;9.196;2022-07-10T14:31:45;25.20;88.00
5759;DHT22;2904;48.788;9.196;2022-07-10T14:34:13;24.90;89.60
5759;DHT22;2904;48.788;9.196;2022-07-10T14:36:39;24.10;90.90
5759;DHT22;2904;48.788;9.196;2022-07-10T14:39:04;23.20;92.40
5759;DHT22;2904;48.788;9.196;2022-07-10T14:41:30;22.70;93.40
5759;DHT22;2904;48.788;9.196;2022-07-10T14:43:56;23.10;92.40
5759;DHT22;2904;48.788;9.196;2022-07-10T14:46:21;23.70;92.00
5759;DHT22;2904;48.788;9.196;2022-07-10T14:48:47;25.30;90.80
5759;DHT22;2904;48.788;9.196;2022-07-10T14:51:13;26.90;88.10
5759;DHT22;2904;48.788;9.196;2022-07-10T14:53:40;28.60;81.30
5759;DHT22;2904;48.788;9.196;2022-07-10T14:56:07;29.50;78.90
5759;DHT22;2904;48.788;9.196;2022-07-10T14:58:33;30.80;73.40
5759;DHT22;2904;48.788;9.196;2022-07-10T15:00:59;31.90;68.60
5759;DHT22;2904;48.788;9.196;2022-07-10T15:03:26;31.80;66.30
5759;DHT22;2904;48.788;9.196;2022-07-10T15:05:51;31.30;64.70
5759;DHT22;2904;48.788;9.196;2022-07-10T15:08:25;32.00;62.10
5759;DHT22;2904;48.788;9.196;2022-07-10T15:10:51;32.10;59.90
5759;DHT22;2904;48.788;9.196;2022-07-10T15:13:17;27.00;57.80
5759;DHT22;2904;48.788;9.196;2022-07-10T15:15:43;31.10;59.30
5759;DHT22;2904;48.788;9.196;2022-07-10T15:18:09;31.80;58.60
5759;DHT22;2904;48.788;9.196;2022-07-10T15:20:35;32.10;59.30
5759;DHT22;2904;48.788;9.196;2022-07-10T15:23:03;33.20;56.50
5759;DHT22;2904;48.788;9.196;2022-07-10T15:25:29;34.10;53.70
5759;DHT22;2904;48.788;9.196;2022-07-10T15:27:55;34.50;52.00
5759;DHT22;2904;48.788;9.196;2022-07-10T15:30:21;35.30;49.70
5759;DHT22;2904;48.788;9.196;2022-07-10T15:32:47;35.50;48.10
5759;DHT22;2904;48.788;9.196;2022-07-10T15:35:12;35.00;48.20
5759;DHT22;2904;48.788;9.196;2022-07-10T15:37:38;35.30;47.60
5759;DHT22;2904;48.788;9.196;2022-07-10T15:40:04;34.90;47.00
5759;DHT22;2904;48.788;9.196;2022-07-10T15:42:31;34.60;47.60
5759;DHT22;2904;48.788;9.196;2022-07-10T15:44:57;34.90;46.90
5759;DHT22;2904;48.788;9.196;2022-07-10T15:47:23;34.60;46.80
5759;DHT22;2904;48.788;9.196;2022-07-10T15:49:49;33.80;46.90
5759;DHT22;2904;48.788;9.196;2022-07-10T15:52:15;31.50;49.20
5759;DHT22;2904;48.788;9.196;2022-07-10T15:54:40;30.50;51.10
5759;DHT22;2904;48.788;9.196;2022-07-10T15:57:07;30.20;51.60
5759;DHT22;2904;48.788;9.196;2022-07-10T15:59:32;29.10;53.10
5759;DHT22;2904;48.788;9.196;2022-07-10T16:02:00;27.60;56.50
5759;DHT22;2904;48.788;9.196;2022-07-10T16:04:26;26.70;57.20
5759;DHT22;2904;48.788;9.196;2022-07-10T16:06:52;26.00;58.60
5759;DHT22;2904;48.788;9.196;2022-07-10T16:09:19;24.50;61.20
5759;DHT22;2904;48.788;9.196;2022-07-10T16:11:45;23.70;64.20
5759;DHT22;2904;48.788;9.196;2022-07-10T16:14:11;23.10;66.90
5759;DHT22;2904;48.788;9.196;2022-07-10T16:16:37;22.80;66.50
5759;DHT22;2904;48.788;9.196;2022-07-10T16:19:03;23.00;67.20
5759;DHT22;2904;48.788;9.196;2022-07-10T16:21:30;23.50;66.90
5759;DHT22;2904;48.788;9.196;2022-07-10T16:23:56;23.70;65.90
5759;DHT22;2904;48.788;9.196;2022-07-10T16:26:23;23.80;67.10
5759;DHT22;2904;48.788;9.196;2022-07-10T16:28:48;24.10;68.10
5759;DHT22;2904;48.788;9.196;2022-07-10T16:31:15;24.30;66.40
5759;DHT22;2904;48.788;9.196;2022-07-10T16:33:41;24.40;66.30
5759;DHT22;2904;48.788;9.196;2022-07-10T16:36:07;24.50;66.20
5759;DHT22;2904;48.788;9.196;2022-07-10T16:38:33;24.80;64.90
5759;DHT22;2904;48.788;9.196;2022-07-10T16:40:59;25.80;65.30
5759;DHT22;2904;48.788;9.196;2022-07-10T16:43:26;25.20;63.70
5759;DHT22;2904;48.788;9.196;2022-07-10T16:45:56;25.50;63.20